sensor_id;sensor_type;location;lat;lon;timestamp;temperature;humidity
19878;DHT22;10101;52.204;9.910;2023-03-14T00:00:09;10.40;1.00
19878;DHT22;10101;52.204;9.910;2023-03-14T00:02:36;10.50;99.90
19878;DHT22;10101;52.204;9.910;2023-03-14T00:05:04;10.60;99.90
19878;DHT22;10101;52.204;9.910;2023-03-14T00:07:32;10.60;1.00
19878;DHT22;10101;52.204;9.910;2023-03-14T00:10:01;10.60;1.00
19878;DHT22;10101;52.204;9.910;2023-03-14T00:12:31;10.60;99.90
19878;DHT22;10101;52.204;9.910;2023-03-14T00:14:58;10.50;99.90
19878;DHT22;10101;52.204;9.910;2023-03-14T00:17:25;10.50;1.00
19878;DHT22;10101;52.204;9.910;2023-03-14T00:19:52;10.60;99.90
19878;DHT22;10101;52.204;9.910;2023-03-14T00:22:19;10.50;99.90
19878;DHT22;10101;52.204;9.910;2023-03-14T00:24:46;10.70;1.00
19878;DHT22;10101;52.204;9.910;2023-03-14T00:27:13;10.90;1.00
19878;DHT22;10101;52.204;9.910;2023-03-14T00:29:42;10.90;1.00
19878;DHT22;10101;52.204;9.910;2023-03-14T00:32:09;10.80;1.00
19878;DHT22;10101;52.204;9.910;2023-03-14T00:34:35;10.90;1.00
19878;DHT22;10101;52.204;9.910;2023-03-14T00:37:02;10.90;1.00
19878;DHT22;10101;52.204;9.910;2023-03-14T00:39:29;10.80;1.00
19878;DHT22;10101;52.204;9.910;2023-03-14T00:41:56;10.90;1.00
19878;DHT22;10101;52.204;9.910;2023-03-14T00:44:23;11.10;99.90
19878;DHT22;10101;52.204;9.910;2023-03-14T00:46:51;11.20;1.00
19878;DHT22;10101;52.204;9.910;2023-03-14T00:49:18;11.20;1.00
19878;DHT22;10101;52.204;9.910;2023-03-14T00:51:45;11.30;99.90
19878;DHT22;10101;52.204;9.910;2023-03-14T00:54:11;11.50;1.00
19878;DHT22;10101;52.204;9.910;2023-03-14T00:56:38;11.60;1.00
19878;DHT22;10101;52.204;9.910;2023-03-14T00:59:05;11.70;99.90
19878;DHT22;10101;52.204;9.910;2023-03-14T01:01:32;11.70;1.00
19878;DHT22;10101;52.204;9.910;2023-03-14T01:04:00;11.60;1.00
19878;DHT22;10101;52.204;9.910;2023-03-14T01:06:28;11.70;99.90
19878;DHT22;10101;52.204;9.910;2023-03-14T01:08:56;11.80;99.90
19878;DHT22;10101;52.204;9.910;2023-03-14T01:11:24;11.70;59.50
19878;DHT22;10101;52.204;9.910;2023-03-14T01:13:52;11.60;1.00
19878;DHT22;10101;52.204;9.910;2023-03-14T01:16:20;11.60;1.00
19878;DHT22;10101;52.204;9.910;2023-03-14T01:18:48;11.60;1.00
19878;DHT22;10101;52.204;9.910;2023-03-14T01:21:18;11.60;1.00
19878;DHT22;10101;52.204;9.910;2023-03-14T01:23:46;11.50;1.00
19878;DHT22;10101;52.204;9.910;2023-03-14T01:26:15;11.60;1.00
19878;DHT22;10101;52.204;9.910;2023-03-14T01:28:45;11.50;1.00
19878;DHT22;10101;52.204;9.910;2023-03-14T01:31:12;11.30;99.90
19878;DHT22;10101;52.204;9.910;2023-03-14T01:33:40;11.40;99.90
19878;DHT22;10101;52.204;9.910;2023-03-14T01:36:08;11.40;99.90
19878;DHT22;10101;52.204;9.910;2023-03-14T01:38:38;11.40;99.90
19878;DHT22;10101;52.204;9.910;2023-03-14T01:41:06;11.20;99.90
19878;DHT22;10101;52.204;9.910;2023-03-14T01:43:33;11.20;99.90
19878;DHT22;10101;52.204;9.910;2023-03-14T01:46:25;11.40;99.90
19878;DHT22;10101;52.204;9.910;2023-03-14T01:48:56;11.30;99.90
19878;DHT22;10101;52.204;9.910;2023-03-14T01:51:30;11.30;99.90
19878;DHT22;10101;52.204;9.910;2023-03-14T01:54:07;11.30;99.90
19878;DHT22;10101;52.204;9.910;2023-03-14T01:57:12;11.30;99.90
19878;DHT22;10101;52.204;9.910;2023-03-14T01:59:42;11.20;47.60
19878;DHT22;10101;52.204;9.910;2023-03-14T02:02:11;11.10;1.00
19878;DHT22;10101;52.204;9.910;2023-03-14T02:04:40;11.10;1.00
19878;DHT22;10101;52.204;9.910;2023-03-14T02:07:11;11.20;29.70
19878;DHT22;10101;52.204;9.910;2023-03-14T02:09:41;11.20;1.00
19878;DHT22;10101;52.204;9.910;2023-03-14T02:12:09;11.10;1.00
19878;DHT22;10101;52.204;9.910;2023-03-14T02:14:38;11.10;1.00
19878;DHT22;10101;52.204;9.910;2023-03-14T02:17:07;11.00;1.00
19878;DHT22;10101;52.204;9.910;2023-03-14T02:19:50;11.20;1.00
19878;DHT22;10101;52.204;9.910;2023-03-14T02:22:21;11.30;1.00
19878;DHT22;10101;52.204;9.910;2023-03-14T02:24:57;11.10;1.00
19878;DHT22;10101;52.204;9.910;2023-03-14T02:27:29;11.10;1.00
19878;DHT22;10101;52.204;9.910;2023-03-14T02:29:59;11.00;1.00
19878;DHT22;10101;52.204;9.910;2023-03-14T02:32:28;11.00;1.00
19878;DHT22;10101;52.204;9.910;2023-03-14T02:34:58;11.20;1.00
19878;DHT22;10101;52.204;9.910;2023-03-14T02:37:28;11.10;1.00
19878;DHT22;10101;52.204;9.910;2023-03-14T02:39:58;11.10;1.00
19878;DHT22;10101;52.204;9.910;2023-03-14T02:42:25;11.00;99.90
19878;DHT22;10101;52.204;9.910;2023-03-14T02:44:55;10.90;99.90
19878;DHT22;10101;52.204;9.910;2023-03-14T02:47:28;11.00;99.90
19878;DHT22;10101;52.204;9.910;2023-03-14T02:50:00;11.10;99.90
19878;DHT22;10101;52.204;9.910;2023-03-14T02:52:28;11.20;99.90
19878;DHT22;10101;52.204;9.910;2023-03-14T02:54:55;11.20;99.90
19878;DHT22;10101;52.204;9.910;2023-03-14T02:57:21;11.10;99.90
19878;DHT22;10101;52.204;9.910;2023-03-14T02:59:48;11.10;99.90
19878;DHT22;10101;52.204;9.910;2023-03-14T03:02:16;11.00;99.90
19878;DHT22;10101;52.204;9.910;2023-03-14T03:04:43;11.20;99.90
19878;DHT22;10101;52.204;9.910;2023-03-14T03:07:10;11.10;64.40
19878;DHT22;10101;52.204;9.910;2023-03-14T03:09:37;11.10;1.00
19878;DHT22;10101;52.204;9.910;2023-03-14T03:12:04;11.00;1.00
19878;DHT22;10101;52.204;9.910;2023-03-14T03:14:31;11.00;1.00
19878;DHT22;10101;52.204;9.910;2023-03-14T03:16:57;11.00;1.00
19878;DHT22;10101;52.204;9.910;2023-03-14T03:19:25;11.00;1.00
19878;DHT22;10101;52.204;9.910;2023-03-14T03:21:52;11.00;1.00
19878;DHT22;10101;52.204;9.910;2023-03-14T03:24:19;10.90;1.00
19878;DHT22;10101;52.204;9.910;2023-03-14T03:26:46;11.00;1.00
19878;DHT22;10101;52.204;9.910;2023-03-14T03:29:12;10.90;1.00
19878;DHT22;10101;52.204;9.910;2023-03-14T03:31:39;10.80;1.00
19878;DHT22;10101;52.204;9.910;2023-03-14T03:34:06;10.80;1.00
19878;DHT22;10101;52.204;9.910;2023-03-14T03:36:34;10.90;1.00
19878;DHT22;10101;52.204;9.910;2023-03-14T03:39:01;10.80;1.00
19878;DHT22;10101;52.204;9.910;2023-03-14T03:41:27;10.70;1.00
19878;DHT22;10101;52.204;9.910;2023-03-14T03:43:54;10.70;1.00
19878;DHT22;10101;52.204;9.910;2023-03-14T03:46:21;10.60;1.00
19878;DHT22;10101;52.204;9.910;2023-03-14T03:48:48;10.60;1.00
19878;DHT22;10101;52.204;9.910;2023-03-14T03:51:15;10.70;1.00
19878;DHT22;10101;52.204;9.910;2023-03-14T03:53:44;10.60;1.00
19878;DHT22;10101;52.204;9.910;2023-03-14T03:56:10;10.70;1.00
19878;DHT22;10101;52.204;9.910;2023-03-14T03:58:37;10.70;60.10
19878;DHT22;10101;52.204;9.910;2023-03-14T04:01:05;10.60;99.90
19878;DHT22;10101;52.204;9.910;2023-03-14T04:03:32;10.40;1.00
19878;DHT22;10101;52.204;9.910;2023-03-14T04:06:00;10.50;1.00
19878;DHT22;10101;52.204;9.910;2023-03-14T04:08:27;10.50;20.70
19878;DHT22;10101;52.204;9.910;2023-03-14T04:10:57;10.40;99.90
19878;DHT22;10101;52.204;9.910;2023-03-14T04:13:24;9.90;1.00
19878;DHT22;10101;52.204;9.910;2023-03-14T04:15:51;9.60;50.70
19878;DHT22;10101;52.204;9.910;2023-03-14T04:18:18;9.40;99.90
19878;DHT22;10101;52.204;9.910;2023-03-14T04:20:45;9.30;1.00
19878;DHT22;10101;52.204;9.910;2023-03-14T04:23:12;9.20;23.90
19878;DHT22;10101;52.204;9.910;2023-03-14T04:25:39;9.10;1.00
19878;DHT22;10101;52.204;9.910;2023-03-14T04:28:07;9.10;31.90
19878;DHT22;10101;52.204;9.910;2023-03-14T04:30:34;9.10;99.90
19878;DHT22;10101;52.204;9.910;2023-03-14T04:33:00;9.10;99.90
19878;DHT22;10101;52.204;9.910;2023-03-14T04:35:29;9.10;99.90
19878;DHT22;10101;52.204;9.910;2023-03-14T04:37:56;9.10;99.90
19878;DHT22;10101;52.204;9.910;2023-03-14T04:40:23;9.00;1.00
19878;DHT22;10101;52.204;9.910;2023-03-14T04:42:49;9.20;1.00
19878;DHT22;10101;52.204;9.910;2023-03-14T04:45:17;9.20;1.00
19878;DHT22;10101;52.204;9.910;2023-03-14T04:47:44;9.30;1.00
19878;DHT22;10101;52.204;9.910;2023-03-14T04:50:11;9.20;1.00
19878;DHT22;10101;52.204;9.910;2023-03-14T04:52:38;9.30;1.00
19878;DHT22;10101;52.204;9.910;2023-03-14T04:55:05;9.30;99.90
19878;DHT22;10101;52.204;9.910;2023-03-14T04:57:32;9.60;99.90
19878;DHT22;10101;52.204;9.910;2023-03-14T04:59:59;9.50;1.00
19878;DHT22;10101;52.204;9.910;2023-03-14T05:02:27;9.50;1.00
19878;DHT22;10101;52.204;9.910;2023-03-14T05:04:54;9.40;1.00
19878;DHT22;10101;52.204;9.910;2023-03-14T05:07:20;9.30;74.60
19878;DHT22;10101;52.204;9.910;2023-03-14T05:09:47;9.40;32.40
19878;DHT22;10101;52.204;9.910;2023-03-14T05:12:14;9.30;99.90
19878;DHT22;10101;52.204;9.910;2023-03-14T05:14:41;9.40;99.90
19878;DHT22;10101;52.204;9.910;2023-03-14T05:17:08;9.40;1.00
19878;DHT22;10101;52.204;9.910;2023-03-14T05:19:36;9.30;1.00
19878;DHT22;10101;52.204;9.910;2023-03-14T05:22:03;9.30;1.00
19878;DHT22;10101;52.204;9.910;2023-03-14T05:24:30;9.40;1.00
19878;DHT22;10101;52.204;9.910;2023-03-14T05:26:57;9.50;1.00
19878;DHT22;10101;52.204;9.910;2023-03-14T05:29:23;9.30;1.00
19878;DHT22;10101;52.204;9.910;2023-03-14T05:31:50;9.20;1.00
19878;DHT22;10101;52.204;9.910;2023-03-14T05:34:17;9.20;1.00
19878;DHT22;10101;52.204;9.910;2023-03-14T05:36:45;9.20;1.00
19878;DHT22;10101;52.204;9.910;2023-03-14T05:39:12;9.10;98.80
19878;DHT22;10101;52.204;9.910;2023-03-14T05:41:38;9.20;60.70
19878;DHT22;10101;52.204;9.910;2023-03-14T05:44:05;9.30;1.00
19878;DHT22;10101;52.204;9.910;2023-03-14T05:46:32;9.30;1.00
19878;DHT22;10101;52.204;9.910;2023-03-14T05:48:59;9.30;1.00
19878;DHT22;10101;52.204;9.910;2023-03-14T05:51:26;9.30;1.00
19878;DHT22;10101;52.204;9.910;2023-03-14T05:53:54;9.30;1.00
19878;DHT22;10101;52.204;9.910;2023-03-14T05:56:21;9.30;1.00
19878;DHT22;10101;52.204;9.910;2023-03-14T05:58:48;9.30;1.00
19878;DHT22;10101;52.204;9.910;2023-03-14T06:01:15;9.20;1.00
19878;DHT22;10101;52.204;9.910;2023-03-14T06:03:41;9.10;1.00
19878;DHT22;10101;52.204;9.910;2023-03-14T06:06:08;9.20;1.00
19878;DHT22;10101;52.204;9.910;2023-03-14T06:08:35;9.10;99.90
19878;DHT22;10101;52.204;9.910;2023-03-14T06:11:04;9.00;99.90
19878;DHT22;10101;52.204;9.910;2023-03-14T06:13:31;9.00;99.90
19878;DHT22;10101;52.204;9.910;2023-03-14T06:15:57;8.90;1.00
19878;DHT22;10101;52.204;9.910;2023-03-14T06:18:24;8.90;1.00
19878;DHT22;10101;52.204;9.910;2023-03-14T06:20:53;8.90;99.90
19878;DHT22;10101;52.204;9.910;2023-03-14T06:23:20;9.10;1.00
19878;DHT22;10101;52.204;9.910;2023-03-14T06:25:47;9.30;1.00
19878;DHT22;10101;52.204;9.910;2023-03-14T06:28:15;9.30;1.00
19878;DHT22;10101;52.204;9.910;2023-03-14T06:30:42;9.20;99.90
19878;DHT22;10101;52.204;9.910;2023-03-14T06:33:09;9.30;99.90
19878;DHT22;10101;52.204;9.910;2023-03-14T06:35:36;9.40;22.10
19878;DHT22;10101;52.204;9.910;2023-03-14T06:38:03;9.40;13.20
19878;DHT22;10101;52.204;9.910;2023-03-14T06:40:30;9.60;1.00
19878;DHT22;10101;52.204;9.910;2023-03-14T06:42:56;9.40;1.00
19878;DHT22;10101;52.204;9.910;2023-03-14T06:45:24;9.70;1.00
19878;DHT22;10101;52.204;9.910;2023-03-14T06:47:51;9.70;1.00
19878;DHT22;10101;52.204;9.910;2023-03-14T06:50:18;9.70;1.00
19878;DHT22;10101;52.204;9.910;2023-03-14T06:52:47;9.80;1.00
19878;DHT22;10101;52.204;9.910;2023-03-14T06:55:15;9.70;99.90
19878;DHT22;10101;52.204;9.910;2023-03-14T06:57:42;9.60;1.00
19878;DHT22;10101;52.204;9.910;2023-03-14T07:00:10;9.50;80.70
19878;DHT22;10101;52.204;9.910;2023-03-14T07:02:39;9.40;99.90
19878;DHT22;10101;52.204;9.910;2023-03-14T07:05:06;9.30;99.90
19878;DHT22;10101;52.204;9.910;2023-03-14T07:07:33;9.30;1.00
19878;DHT22;10101;52.204;9.910;2023-03-14T07:10:00;9.30;1.00
19878;DHT22;10101;52.204;9.910;2023-03-14T07:12:26;9.40;1.00
19878;DHT22;10101;52.204;9.910;2023-03-14T07:14:53;9.40;1.00
19878;DHT22;10101;52.204;9.910;2023-03-14T07:17:20;9.40;99.90
19878;DHT22;10101;52.204;9.910;2023-03-14T07:19:48;9.50;99.90
19878;DHT22;10101;52.204;9.910;2023-03-14T07:22:15;9.50;99.90
19878;DHT22;10101;52.204;9.910;2023-03-14T07:24:41;9.50;1.00
19878;DHT22;10101;52.204;9.910;2023-03-14T07:27:08;9.50;99.90
19878;DHT22;10101;52.204;9.910;2023-03-14T07:29:35;9.50;99.90
19878;DHT22;10101;52.204;9.910;2023-03-14T07:32:02;9.50;1.00
19878;DHT22;10101;52.204;9.910;2023-03-14T07:34:28;9.40;99.90
19878;DHT22;10101;52.204;9.910;2023-03-14T07:36:57;9.40;99.90
19878;DHT22;10101;52.204;9.910;2023-03-14T07:39:23;9.30;99.90
19878;DHT22;10101;52.204;9.910;2023-03-14T07:41:50;9.30;99.90
19878;DHT22;10101;52.204;9.910;2023-03-14T07:44:17;9.30;99.90
19878;DHT22;10101;52.204;9.910;2023-03-14T07:46:44;9.30;99.90
19878;DHT22;10101;52.204;9.910;2023-03-14T07:49:10;9.40;99.90
19878;DHT22;10101;52.204;9.910;2023-03-14T07:51:37;9.40;99.90
19878;DHT22;10101;52.204;9.910;2023-03-14T07:54:05;9.50;99.90
19878;DHT22;10101;52.204;9.910;2023-03-14T07:56:32;9.60;99.90
19878;DHT22;10101;52.204;9.910;2023-03-14T07:58:58;9.60;99.90
19878;DHT22;10101;52.204;9.910;2023-03-14T08:01:25;9.70;99.90
19878;DHT22;10101;52.204;9.910;2023-03-14T08:03:52;9.80;99.90
19878;DHT22;10101;52.204;9.910;2023-03-14T08:06:19;10.00;99.90
19878;DHT22;10101;52.204;9.910;2023-03-14T08:08:45;10.00;99.90
19878;DHT22;10101;52.204;9.910;2023-03-14T08:11:14;10.10;99.90
19878;DHT22;10101;52.204;9.910;2023-03-14T08:13:40;10.20;99.90
19878;DHT22;10101;52.204;9.910;2023-03-14T08:16:08;10.30;99.90
19878;DHT22;10101;52.204;9.910;2023-03-14T08:18:35;10.30;1.00
19878;DHT22;10101;52.204;9.910;2023-03-14T08:21:01;10.40;99.90
19878;DHT22;10101;52.204;9.910;2023-03-14T08:23:28;10.60;1.00
19878;DHT22;10101;52.204;9.910;2023-03-14T08:25:55;10.60;1.00
19878;DHT22;10101;52.204;9.910;2023-03-14T08:28:23;10.70;1.00
19878;DHT22;10101;52.204;9.910;2023-03-14T08:30:55;10.70;99.90
19878;DHT22;10101;52.204;9.910;2023-03-14T08:33:22;10.70;99.90
19878;DHT22;10101;52.204;9.910;2023-03-14T08:35:51;10.60;1.00
19878;DHT22;10101;52.204;9.910;2023-03-14T08:38:18;10.40;1.00
19878;DHT22;10101;52.204;9.910;2023-03-14T08:40:45;10.10;18.50
19878;DHT22;10101;52.204;9.910;2023-03-14T08:43:11;10.10;99.90
19878;DHT22;10101;52.204;9.910;2023-03-14T08:45:40;10.10;99.90
19878;DHT22;10101;52.204;9.910;2023-03-14T08:48:06;10.10;99.90
19878;DHT22;10101;52.204;9.910;2023-03-14T08:50:33;10.00;99.90
19878;DHT22;10101;52.204;9.910;2023-03-14T08:53:00;10.10;99.90
19878;DHT22;10101;52.204;9.910;2023-03-14T08:55:28;10.10;99.90
19878;DHT22;10101;52.204;9.910;2023-03-14T08:57:54;10.20;99.90
19878;DHT22;10101;52.204;9.910;2023-03-14T09:00:21;10.20;99.90
19878;DHT22;10101;52.204;9.910;2023-03-14T09:02:50;10.30;99.90
19878;DHT22;10101;52.204;9.910;2023-03-14T09:05:17;10.30;99.90
19878;DHT22;10101;52.204;9.910;2023-03-14T09:07:43;10.40;99.90
19878;DHT22;10101;52.204;9.910;2023-03-14T09:10:11;10.50;99.90
19878;DHT22;10101;52.204;9.910;2023-03-14T09:12:37;10.60;99.90
19878;DHT22;10101;52.204;9.910;2023-03-14T09:15:05;10.60;99.90
19878;DHT22;10101;52.204;9.910;2023-03-14T09:17:32;10.70;99.90
19878;DHT22;10101;52.204;9.910;2023-03-14T09:20:00;10.80;9.00
19878;DHT22;10101;52.204;9.910;2023-03-14T09:22:30;10.80;99.90
19878;DHT22;10101;52.204;9.910;2023-03-14T09:24:56;10.90;1.00
19878;DHT22;10101;52.204;9.910;2023-03-14T09:27:23;10.90;99.90
19878;DHT22;10101;52.204;9.910;2023-03-14T09:29:50;10.90;1.00
19878;DHT22;10101;52.204;9.910;2023-03-14T09:32:16;11.10;99.90
19878;DHT22;10101;52.204;9.910;2023-03-14T09:34:43;11.00;99.90
19878;DHT22;10101;52.204;9.910;2023-03-14T09:37:11;11.10;88.90
19878;DHT22;10101;52.204;9.910;2023-03-14T09:39:38;11.10;1.00
19878;DHT22;10101;52.204;9.910;2023-03-14T09:42:08;11.30;1.00
19878;DHT22;10101;52.204;9.910;2023-03-14T09:44:41;11.60;99.90
19878;DHT22;10101;52.204;9.910;2023-03-14T09:47:11;11.60;1.00
19878;DHT22;10101;52.204;9.910;2023-03-14T09:49:40;11.70;1.00
19878;DHT22;10101;52.204;9.910;2023-03-14T09:52:13;11.70;99.90
19878;DHT22;10101;52.204;9.910;2023-03-14T09:54:43;11.80;72.70
19878;DHT22;10101;52.204;9.910;2023-03-14T09:57:13;11.80;1.00
19878;DHT22;10101;52.204;9.910;2023-03-14T09:59:42;11.60;99.90
19878;DHT22;10101;52.204;9.910;2023-03-14T10:02:17;11.60;99.90
19878;DHT22;10101;52.204;9.910;2023-03-14T10:04:46;11.40;99.90
19878;DHT22;10101;52.204;9.910;2023-03-14T10:07:16;11.30;99.90
19878;DHT22;10101;52.204;9.910;2023-03-14T10:09:45;11.30;1.00
19878;DHT22;10101;52.204;9.910;2023-03-14T10:12:13;11.30;99.90
19878;DHT22;10101;52.204;9.910;2023-03-14T10:14:46;11.20;99.90
19878;DHT22;10101;52.204;9.910;2023-03-14T10:17:15;11.40;99.90
19878;DHT22;10101;52.204;9.910;2023-03-14T10:19:54;11.60;1.00
19878;DHT22;10101;52.204;9.910;2023-03-14T10:22:24;11.90;1.00
19878;DHT22;10101;52.204;9.910;2023-03-14T10:24:53;12.10;99.90
19878;DHT22;10101;52.204;9.910;2023-03-14T10:27:22;12.00;99.90
19878;DHT22;10101;52.204;9.910;2023-03-14T10:29:54;11.90;99.90
19878;DHT22;10101;52.204;9.910;2023-03-14T10:32:28;11.80;99.90
19878;DHT22;10101;52.204;9.910;2023-03-14T10:35:08;11.90;1.00
19878;DHT22;10101;52.204;9.910;2023-03-14T10:37:48;12.00;1.00
19878;DHT22;10101;52.204;9.910;2023-03-14T10:40:18;12.00;99.90
19878;DHT22;10101;52.204;9.910;2023-03-14T10:42:45;12.20;99.90
19878;DHT22;10101;52.204;9.910;2023-03-14T10:45:28;12.00;99.90
19878;DHT22;10101;52.204;9.910;2023-03-14T10:47:58;11.90;1.00
19878;DHT22;10101;52.204;9.910;2023-03-14T10:50:28;12.10;1.00
19878;DHT22;10101;52.204;9.910;2023-03-14T10:53:00;12.20;1.00
19878;DHT22;10101;52.204;9.910;2023-03-14T10:55:40;12.40;1.00
19878;DHT22;10101;52.204;9.910;2023-03-14T10:58:24;12.30;99.90
19878;DHT22;10101;52.204;9.910;2023-03-14T11:00:58;12.40;99.90
19878;DHT22;10101;52.204;9.910;2023-03-14T11:03:28;12.30;1.00
19878;DHT22;10101;52.204;9.910;2023-03-14T11:05:58;12.30;1.00
19878;DHT22;10101;52.204;9.910;2023-03-14T11:08:31;12.10;1.00
19878;DHT22;10101;52.204;9.910;2023-03-14T11:11:08;12.00;1.00
19878;DHT22;10101;52.204;9.910;2023-03-14T11:13:40;11.90;1.00
19878;DHT22;10101;52.204;9.910;2023-03-14T11:16:14;11.90;1.00
19878;DHT22;10101;52.204;9.910;2023-03-14T11:19:08;12.00;1.00
19878;DHT22;10101;52.204;9.910;2023-03-14T11:21:44;12.30;1.00
19878;DHT22;10101;52.204;9.910;2023-03-14T11:24:25;12.40;1.00
19878;DHT22;10101;52.204;9.910;2023-03-14T11:26:58;12.60;99.90
19878;DHT22;10101;52.204;9.910;2023-03-14T11:29:31;12.80;99.90
19878;DHT22;10101;52.204;9.910;2023-03-14T11:32:02;12.80;99.90
19878;DHT22;10101;52.204;9.910;2023-03-14T11:34:33;12.70;99.90
19878;DHT22;10101;52.204;9.910;2023-03-14T11:37:05;12.50;90.40
19878;DHT22;10101;52.204;9.910;2023-03-14T11:39:39;12.50;1.00
19878;DHT22;10101;52.204;9.910;2023-03-14T11:42:11;12.30;1.00
19878;DHT22;10101;52.204;9.910;2023-03-14T11:44:40;12.20;99.90
19878;DHT22;10101;52.204;9.910;2023-03-14T11:47:14;12.00;1.00
19878;DHT22;10101;52.204;9.910;2023-03-14T11:49:45;9.10;1.00
19878;DHT22;10101;52.204;9.910;2023-03-14T11:52:19;7.10;99.90
19878;DHT22;10101;52.204;9.910;2023-03-14T11:54:51;6.30;99.90
19878;DHT22;10101;52.204;9.910;2023-03-14T11:57:21;6.00;99.90
19878;DHT22;10101;52.204;9.910;2023-03-14T11:59:52;5.90;99.90
19878;DHT22;10101;52.204;9.910;2023-03-14T12:02:25;5.90;99.90
19878;DHT22;10101;52.204;9.910;2023-03-14T12:05:16;6.00;99.90
19878;DHT22;10101;52.204;9.910;2023-03-14T12:10:49;5.90;99.90
19878;DHT22;10101;52.204;9.910;2023-03-14T12:13:18;5.90;99.90
19878;DHT22;10101;52.204;9.910;2023-03-14T12:15:49;5.80;99.90
19878;DHT22;10101;52.204;9.910;2023-03-14T12:18:20;5.80;99.90
19878;DHT22;10101;52.204;9.910;2023-03-14T12:20:51;5.70;99.90
19878;DHT22;10101;52.204;9.910;2023-03-14T12:23:20;5.70;99.90
19878;DHT22;10101;52.204;9.910;2023-03-14T12:25:48;5.60;99.90
19878;DHT22;10101;52.204;9.910;2023-03-14T12:28:32;5.30;99.90
19878;DHT22;10101;52.204;9.910;2023-03-14T12:31:37;5.10;99.90
19878;DHT22;10101;52.204;9.910;2023-03-14T12:34:33;4.90;99.90
19878;DHT22;10101;52.204;9.910;2023-03-14T12:37:16;4.50;99.90
19878;DHT22;10101;52.204;9.910;2023-03-14T12:39:49;4.40;99.90
19878;DHT22;10101;52.204;9.910;2023-03-14T12:42:22;4.20;99.90
19878;DHT22;10101;52.204;9.910;2023-03-14T12:45:21;4.10;99.90
19878;DHT22;10101;52.204;9.910;2023-03-14T12:48:10;4.20;99.90
19878;DHT22;10101;52.204;9.910;2023-03-14T12:50:45;4.00;99.90
19878;DHT22;10101;52.204;9.910;2023-03-14T12:53:38;3.80;99.90
19878;DHT22;10101;52.204;9.910;2023-03-14T12:56:15;3.90;99.90
19878;DHT22;10101;52.204;9.910;2023-03-14T12:58:54;3.80;99.90
19878;DHT22;10101;52.204;9.910;2023-03-14T13:01:26;3.70;99.90
19878;DHT22;10101;52.204;9.910;2023-03-14T13:03:56;3.60;99.90
19878;DHT22;10101;52.204;9.910;2023-03-14T13:06:46;3.60;99.90
19878;DHT22;10101;52.204;9.910;2023-03-14T13:09:51;3.60;99.90
19878;DHT22;10101;52.204;9.910;2023-03-14T13:12:23;3.60;99.90
19878;DHT22;10101;52.204;9.910;2023-03-14T13:14:53;3.70;99.90
19878;DHT22;10101;52.204;9.910;2023-03-14T13:17:26;3.70;99.90
19878;DHT22;10101;52.204;9.910;2023-03-14T13:19:56;3.60;99.90
19878;DHT22;10101;52.204;9.910;2023-03-14T13:22:26;3.70;99.90
19878;DHT22;10101;52.204;9.910;2023-03-14T13:25:02;3.70;99.90
19878;DHT22;10101;52.204;9.910;2023-03-14T13:27:31;3.80;99.90
19878;DHT22;10101;52.204;9.910;2023-03-14T13:30:05;4.00;99.90
19878;DHT22;10101;52.204;9.910;2023-03-14T13:32:32;4.10;99.90
19878;DHT22;10101;52.204;9.910;2023-03-14T13:35:00;4.20;99.90
19878;DHT22;10101;52.204;9.910;2023-03-14T13:37:27;4.20;99.90
19878;DHT22;10101;52.204;9.910;2023-03-14T13:39:56;4.20;99.90
19878;DHT22;10101;52.204;9.910;2023-03-14T13:42:26;4.30;99.90
19878;DHT22;10101;52.204;9.910;2023-03-14T13:44:55;4.30;99.90
19878;DHT22;10101;52.204;9.910;2023-03-14T13:47:24;4.30;99.90
19878;DHT22;10101;52.204;9.910;2023-03-14T13:49:53;4.20;99.90
19878;DHT22;10101;52.204;9.910;2023-03-14T13:52:32;4.20;99.90
19878;DHT22;10101;52.204;9.910;2023-03-14T13:55:03;4.30;99.90
19878;DHT22;10101;52.204;9.910;2023-03-14T13:57:43;4.40;99.90
19878;DHT22;10101;52.204;9.910;2023-03-14T14:00:18;4.50;99.90
19878;DHT22;10101;52.204;9.910;2023-03-14T14:02:45;4.50;99.90
19878;DHT22;10101;52.204;9.910;2023-03-14T14:05:13;4.50;99.90
19878;DHT22;10101;52.204;9.910;2023-03-14T14:07:43;4.50;99.90
19878;DHT22;10101;52.204;9.910;2023-03-14T14:10:11;4.60;99.90
19878;DHT22;10101;52.204;9.910;2023-03-14T14:12:41;4.60;99.90
19878;DHT22;10101;52.204;9.910;2023-03-14T14:15:11;4.50;99.90
19878;DHT22;10101;52.204;9.910;2023-03-14T14:17:42;4.70;99.90
19878;DHT22;10101;52.204;9.910;2023-03-14T14:20:18;4.70;99.90
19878;DHT22;10101;52.204;9.910;2023-03-14T14:22:48;4.70;99.90
19878;DHT22;10101;52.204;9.910;2023-03-14T14:25:16;4.70;99.90
19878;DHT22;10101;52.204;9.910;2023-03-14T14:27:47;4.70;99.90
19878;DHT22;10101;52.204;9.910;2023-03-14T14:30:28;4.70;99.90
19878;DHT22;10101;52.204;9.910;2023-03-14T14:33:11;4.70;99.90
19878;DHT22;10101;52.204;9.910;2023-03-14T14:35:38;4.50;99.90
19878;DHT22;10101;52.204;9.910;2023-03-14T14:38:12;4.50;99.90
19878;DHT22;10101;52.204;9.910;2023-03-14T14:40:46;4.50;99.90
19878;DHT22;10101;52.204;9.910;2023-03-14T14:43:17;4.60;1.00
19878;DHT22;10101;52.204;9.910;2023-03-14T14:45:45;4.50;1.00
19878;DHT22;10101;52.204;9.910;2023-03-14T14:48:14;4.40;99.90
19878;DHT22;10101;52.204;9.910;2023-03-14T14:50:51;4.30;1.00
19878;DHT22;10101;52.204;9.910;2023-03-14T14:53:26;4.30;99.90
19878;DHT22;10101;52.204;9.910;2023-03-14T14:55:55;4.30;99.90
19878;DHT22;10101;52.204;9.910;2023-03-14T14:58:25;4.40;1.00
19878;DHT22;10101;52.204;9.910;2023-03-14T15:00:56;4.50;99.90
19878;DHT22;10101;52.204;9.910;2023-03-14T15:03:26;4.60;90.60
19878;DHT22;10101;52.204;9.910;2023-03-14T15:05:54;4.70;99.90
19878;DHT22;10101;52.204;9.910;2023-03-14T15:08:24;4.60;1.00
19878;DHT22;10101;52.204;9.910;2023-03-14T15:10:51;4.60;99.90
19878;DHT22;10101;52.204;9.910;2023-03-14T15:13:18;4.60;62.20
19878;DHT22;10101;52.204;9.910;2023-03-14T15:15:45;4.70;1.00
19878;DHT22;10101;52.204;9.910;2023-03-14T15:18:14;4.70;1.00
19878;DHT22;10101;52.204;9.910;2023-03-14T15:20:41;4.70;99.90
19878;DHT22;10101;52.204;9.910;2023-03-14T15:23:10;4.70;99.90
19878;DHT22;10101;52.204;9.910;2023-03-14T15:25:38;4.80;1.00
19878;DHT22;10101;52.204;9.910;2023-03-14T15:28:13;4.80;1.00
19878;DHT22;10101;52.204;9.910;2023-03-14T15:30:41;4.90;1.00
19878;DHT22;10101;52.204;9.910;2023-03-14T15:33:08;4.90;99.90
19878;DHT22;10101;52.204;9.910;2023-03-14T15:35:34;5.00;99.90
19878;DHT22;10101;52.204;9.910;2023-03-14T15:38:02;5.00;99.90
19878;DHT22;10101;52.204;9.910;2023-03-14T15:40:29;5.00;99.90
19878;DHT22;10101;52.204;9.910;2023-03-14T15:42:57;5.10;99.90
19878;DHT22;10101;52.204;9.910;2023-03-14T15:45:24;5.10;1.00
19878;DHT22;10101;52.204;9.910;2023-03-14T15:47:51;5.20;1.00
19878;DHT22;10101;52.204;9.910;2023-03-14T15:50:18;5.20;1.00
19878;DHT22;10101;52.204;9.910;2023-03-14T15:52:45;5.30;1.00
19878;DHT22;10101;52.204;9.910;2023-03-14T15:55:12;5.20;1.00
19878;DHT22;10101;52.204;9.910;2023-03-14T15:57:41;5.20;99.90
19878;DHT22;10101;52.204;9.910;2023-03-14T16:00:12;5.10;99.90
19878;DHT22;10101;52.204;9.910;2023-03-14T16:02:40;5.10;99.90